Breda, Spain

5:51 PM CEST on April 27, 2015 (GMT +0200)
Breda, Girona, Catalonia | | Change Station
CLOSE
Current Station
Personal Weather Station
Location: Breda, CT
Elevation: 551 ft
Nearby Weather Stations
Active Advisory: Thunderstorms

Elev 551 ft 41.75 °N, 2.56 °E | Updated 9 minutes ago

Mostly Cloudy
Mostly Cloudy
67.8 °F
Feels Like 67.8 °F
N
0.0
Wind Variable Wind from NNE
Gusts 2.0 mph

Today
High -- | Low -- °F
--% Chance of Precip.
Yesterday
High -- | Low -- °F
Precip. -- in
6:52 AM 8:43 PM
Waxing Gibbous, 66% visible
Pressure 29.65 in
Visibility 6.2 miles
Clouds Few 2500 ft
Mostly Cloudy 3500 ft
Mostly Cloudy 5000 ft
Dew Point 57 °F
Humidity 68%
Rainfall 0.00 in
Snow Depth Not available.
UV 2 out of 12
Pollen Not available.
Air Quality Not available.
Flu Activity Not available.
METAR LEGE 271530Z 13003KT 080V180 9999 FEW025TCU BKN035 BKN050 17/12 Q1004

More Conditions Fewer Conditions

Pressure 29.65 in
Visibility 6.2 miles
Clouds Few 2500 ft
Mostly Cloudy 3500 ft
Mostly Cloudy 5000 ft
Dew Point 57 °F
Humidity 68%
Rainfall 0.00 in
Snow Depth Not available.
UV 2 out of 12
Pollen Not available.
Air Quality Not available.
Flu Activity Not available.
METAR LEGE 271530Z 13003KT 080V180 9999 FEW025TCU BKN035 BKN050 17/12 Q1004

More Conditions Fewer Conditions

10-Day Weather Forecast

Almanac

Astronomy

Apr. 27, 2015 Rise Set
Actual Time
Civil Twilight
Nautical Twilight
Astronomical Twilight
Moon
Length of Visible Light
Length of Day
Tomorrow will be .
, % of the Moon is Illuminated

Today's Extremes

Country Highs Country Lows

Community

WunderPhotos

Upload Photos

1,817,331 photos uploaded!

WunderBlogs® & News

Nearby

Air Quality

  Air Quality AQ Index Pollutant
Not available.

Snow Depth

Station Depth Elevation

Earthquake Activity

City Distance Mag. Time & Date
Minimum magnitude displayed is 2.5.

Coastal Water Temperatures

Place Temperature

Stations

Nearby Weather Stations

Station Location Temp. Windchill Dew Point Humidity Wind Precip. Elev Updated Type